createdAt,value
2023-02-28T00:00:23.481Z,6.224
2023-02-28T00:01:26.870Z,6.193
2023-02-28T00:02:21.615Z,6.110
2023-02-28T00:03:21.575Z,6.094
2023-02-28T00:04:21.767Z,6.105
2023-02-28T00:05:21.999Z,6.085
2023-02-28T00:06:21.776Z,6.099
2023-02-28T00:07:21.888Z,6.065
2023-02-28T00:08:22.100Z,6.079
2023-02-28T00:09:21.680Z,6.099
2023-02-28T00:10:21.994Z,6.065
2023-02-28T00:11:22.381Z,6.054
2023-02-28T00:12:21.571Z,6.065
2023-02-28T00:13:36.230Z,6.070
2023-02-28T00:14:21.252Z,6.054
2023-02-28T00:15:36.082Z,6.039
2023-02-28T00:16:21.716Z,6.014
2023-02-28T00:17:21.528Z,6.019
2023-02-28T00:18:21.595Z,6.030
2023-02-28T00:19:21.478Z,6.039
2023-02-28T00:20:21.853Z,6.039
2023-02-28T00:21:21.908Z,6.054
2023-02-28T00:22:21.563Z,6.050
2023-02-28T00:23:21.762Z,6.014
2023-02-28T00:24:21.476Z,6.010
2023-02-28T00:25:21.746Z,5.989
2023-02-28T00:26:22.066Z,5.974
2023-02-28T00:27:22.424Z,5.969
2023-02-28T00:28:22.044Z,5.949
2023-02-28T00:29:22.407Z,5.945
2023-02-28T00:30:21.993Z,5.965
2023-02-28T00:31:21.972Z,5.940
2023-02-28T00:32:21.673Z,5.934
2023-02-28T00:33:21.508Z,5.925
2023-02-28T00:34:21.085Z,5.905
2023-02-28T00:35:22.293Z,5.905
2023-02-28T00:36:21.484Z,5.894
2023-02-28T00:37:21.509Z,5.874
2023-02-28T00:38:21.592Z,5.831
2023-02-28T00:39:21.272Z,5.815
2023-02-28T00:40:21.633Z,5.810
2023-02-28T00:41:21.382Z,5.839
2023-02-28T00:42:21.252Z,5.844
2023-02-28T00:43:21.329Z,5.867
2023-02-28T00:44:21.353Z,5.879
2023-02-28T00:45:22.190Z,5.896
2023-02-28T00:46:21.259Z,5.909
2023-02-28T00:47:21.345Z,5.912
2023-02-28T00:48:21.487Z,5.907
2023-02-28T00:50:22.997Z,5.880
2023-02-28T00:51:21.125Z,5.795
2023-02-28T00:52:21.767Z,5.710
2023-02-28T00:53:20.793Z,5.706
2023-02-28T00:54:21.705Z,5.699
2023-02-28T00:55:21.574Z,5.655
2023-02-28T00:56:21.069Z,5.614
2023-02-28T00:57:21.640Z,5.594
2023-02-28T00:58:20.958Z,5.605
2023-02-28T00:59:21.474Z,5.655
2023-02-28T01:00:22.833Z,5.631
2023-02-28T01:01:24.319Z,5.565
2023-02-28T01:02:21.000Z,5.554
2023-02-28T01:03:22.295Z,5.530
2023-02-28T01:04:21.308Z,5.530
2023-02-28T01:05:22.019Z,5.539
2023-02-28T01:06:22.090Z,5.480
2023-02-28T01:07:21.666Z,5.505
2023-02-28T01:08:21.254Z,5.469
2023-02-28T01:09:21.688Z,5.474
2023-02-28T01:10:21.809Z,5.489
2023-02-28T01:11:21.744Z,5.480
2023-02-28T01:12:22.058Z,5.505
2023-02-28T01:13:21.547Z,5.505
2023-02-28T01:14:21.129Z,5.494
2023-02-28T01:15:22.534Z,5.519
2023-02-28T01:16:21.091Z,5.545
2023-02-28T01:17:21.584Z,5.559
2023-02-28T01:18:21.658Z,5.579
2023-02-28T01:19:21.991Z,5.579
2023-02-28T01:20:21.415Z,5.594
2023-02-28T01:21:21.861Z,5.610
2023-02-28T01:22:20.975Z,5.610
2023-02-28T01:23:21.517Z,5.585
2023-02-28T01:24:21.876Z,5.574
2023-02-28T01:25:22.257Z,5.480
2023-02-28T01:26:21.592Z,5.494
2023-02-28T01:27:22.023Z,5.480
2023-02-28T01:28:20.764Z,5.449
2023-02-28T01:29:21.316Z,5.425
2023-02-28T01:30:22.056Z,5.405
2023-02-28T01:31:21.672Z,5.394
2023-02-28T01:32:21.324Z,5.379
2023-02-28T01:33:21.359Z,5.344
2023-02-28T01:34:21.362Z,5.315
2023-02-28T01:35:21.480Z,5.295
2023-02-28T01:36:21.030Z,5.295
2023-02-28T01:37:20.773Z,5.289
2023-02-28T01:38:23.190Z,5.275
2023-02-28T01:39:21.348Z,5.244
2023-02-28T01:40:22.187Z,5.199
2023-02-28T01:41:21.452Z,5.188
2023-02-28T01:42:21.491Z,5.143
2023-02-28T01:43:21.965Z,5.149
2023-02-28T01:44:20.908Z,5.099
2023-02-28T01:45:22.422Z,5.090
2023-02-28T01:46:21.587Z,5.070
2023-02-28T01:47:22.080Z,5.070
2023-02-28T01:48:21.905Z,5.039
2023-02-28T01:49:21.379Z,5.025
2023-02-28T01:50:20.890Z,5.005
2023-02-28T01:51:22.014Z,5.005
2023-02-28T01:52:21.771Z,5.005
2023-02-28T01:53:21.738Z,5.014
2023-02-28T01:54:21.544Z,4.960
2023-02-28T01:55:21.384Z,4.965
2023-02-28T01:56:21.625Z,4.994
2023-02-28T01:57:21.136Z,5.014
2023-02-28T01:58:21.790Z,5.014
2023-02-28T01:59:21.163Z,4.985
2023-02-28T02:00:22.644Z,4.980
2023-02-28T02:01:22.593Z,4.965
2023-02-28T02:02:22.382Z,4.956
2023-02-28T02:03:21.946Z,4.943
2023-02-28T02:04:21.605Z,4.928
2023-02-28T02:05:22.488Z,4.945
2023-02-28T02:06:21.553Z,4.915
2023-02-28T02:07:21.898Z,4.896
2023-02-28T02:08:21.816Z,4.907
2023-02-28T02:09:22.350Z,4.883
2023-02-28T02:10:21.889Z,4.872
2023-02-28T02:11:21.441Z,4.861
2023-02-28T02:12:21.801Z,4.848
2023-02-28T02:13:21.659Z,4.844
2023-02-28T02:14:21.526Z,4.827
2023-02-28T02:15:22.805Z,4.839
2023-02-28T02:16:21.668Z,4.821
2023-02-28T02:17:21.649Z,4.816
2023-02-28T02:18:22.290Z,4.800
2023-02-28T02:19:21.389Z,4.789
2023-02-28T02:20:21.424Z,4.780
2023-02-28T02:21:21.377Z,4.780
2023-02-28T02:22:22.013Z,4.760
2023-02-28T02:23:21.363Z,4.739
2023-02-28T02:24:21.663Z,4.730
2023-02-28T02:25:21.662Z,4.724
2023-02-28T02:26:21.406Z,4.695
2023-02-28T02:27:21.081Z,4.649
2023-02-28T02:28:21.535Z,4.625
2023-02-28T02:29:21.082Z,4.585
2023-02-28T02:30:22.147Z,4.550
2023-02-28T02:31:21.626Z,4.554
2023-02-28T02:32:22.157Z,4.519
2023-02-28T02:33:21.351Z,4.505
2023-02-28T02:34:21.233Z,4.485
2023-02-28T02:35:20.957Z,4.454
2023-02-28T02:36:22.043Z,4.414
2023-02-28T02:37:21.678Z,4.405
2023-02-28T02:38:21.640Z,4.414
2023-02-28T02:39:21.399Z,4.380
2023-02-28T02:40:21.449Z,4.368
2023-02-28T02:41:22.007Z,4.333
2023-02-28T02:42:20.840Z,4.339
2023-02-28T02:43:21.276Z,4.333
2023-02-28T02:44:20.549Z,4.327
2023-02-28T02:45:21.892Z,4.333
2023-02-28T02:46:22.018Z,4.311
2023-02-28T02:47:21.379Z,4.309
2023-02-28T02:48:20.838Z,4.310
2023-02-28T02:49:21.216Z,4.300
2023-02-28T02:50:21.643Z,4.295
2023-02-28T02:51:21.068Z,4.295
2023-02-28T02:52:22.216Z,4.239
2023-02-28T02:53:21.542Z,4.235
2023-02-28T02:54:21.772Z,4.219
2023-02-28T02:55:21.182Z,4.204
2023-02-28T02:56:21.127Z,4.193
2023-02-28T02:57:21.198Z,4.210
2023-02-28T02:58:20.637Z,4.199
2023-02-28T02:59:21.461Z,4.210
2023-02-28T03:00:41.907Z,4.171
2023-02-28T03:01:21.702Z,4.149
2023-02-28T03:02:22.348Z,4.165
2023-02-28T03:03:21.741Z,4.143
2023-02-28T03:04:20.995Z,4.149
2023-02-28T03:05:21.912Z,4.137
2023-02-28T03:06:21.301Z,4.099
2023-02-28T03:07:21.165Z,4.105
2023-02-28T03:08:21.399Z,4.090
2023-02-28T03:09:21.481Z,4.059
2023-02-28T03:10:21.923Z,4.039
2023-02-28T03:11:21.546Z,4.025
2023-02-28T03:12:21.383Z,3.994
2023-02-28T03:13:21.905Z,3.980
2023-02-28T03:14:22.148Z,3.984
2023-02-28T03:15:21.623Z,3.980
2023-02-28T03:16:21.480Z,3.960
2023-02-28T03:17:21.527Z,3.944
2023-02-28T03:18:21.639Z,3.940
2023-02-28T03:19:21.576Z,3.898
2023-02-28T03:20:22.039Z,3.878
2023-02-28T03:21:21.936Z,3.880
2023-02-28T03:22:22.277Z,3.838
2023-02-28T03:23:21.834Z,3.815
2023-02-28T03:24:21.790Z,3.805
2023-02-28T03:25:21.851Z,3.804
2023-02-28T03:26:21.489Z,3.799
2023-02-28T03:27:21.857Z,3.769
2023-02-28T03:28:21.390Z,3.785
2023-02-28T03:29:22.043Z,3.755
2023-02-28T03:30:21.710Z,3.755
2023-02-28T03:31:21.724Z,3.775
2023-02-28T03:32:21.719Z,3.755
2023-02-28T03:33:21.365Z,3.730
2023-02-28T03:34:21.975Z,3.734
2023-02-28T03:35:21.532Z,3.75
2023-02-28T03:36:21.874Z,3.744
2023-02-28T03:37:21.970Z,3.755
2023-02-28T03:38:21.378Z,3.744
2023-02-28T03:39:22.023Z,3.769
2023-02-28T03:40:21.755Z,3.75
2023-02-28T03:41:22.211Z,3.720
2023-02-28T03:42:21.952Z,3.75
2023-02-28T03:43:22.166Z,3.740
2023-02-28T03:44:22.018Z,3.730
2023-02-28T03:45:21.940Z,3.755
2023-02-28T03:46:22.093Z,3.730
2023-02-28T03:47:21.209Z,3.744
2023-02-28T03:48:21.268Z,3.734
2023-02-28T03:49:21.614Z,3.723
2023-02-28T03:50:22.386Z,3.694
2023-02-28T03:51:22.536Z,3.734
2023-02-28T03:52:22.148Z,3.730
2023-02-28T03:53:22.349Z,3.730
2023-02-28T03:54:21.820Z,3.714
2023-02-28T03:55:22.117Z,3.704
2023-02-28T03:56:22.042Z,3.678
2023-02-28T03:57:21.470Z,3.648
2023-02-28T03:58:21.892Z,3.671
2023-02-28T03:59:21.727Z,3.690
2023-02-28T04:00:22.600Z,3.693
2023-02-28T04:01:23.057Z,3.709
2023-02-28T04:02:22.411Z,3.684
2023-02-28T04:03:22.475Z,3.694
2023-02-28T04:04:22.450Z,3.714
2023-02-28T04:05:21.617Z,3.694
2023-02-28T04:06:22.318Z,3.724
2023-02-28T04:07:22.349Z,3.724
2023-02-28T04:08:22.288Z,3.740
2023-02-28T04:09:22.614Z,3.75
2023-02-28T04:10:22.845Z,3.734
2023-02-28T04:11:21.296Z,3.694
2023-02-28T04:12:22.500Z,3.694
2023-02-28T04:13:21.796Z,3.703
2023-02-28T04:14:22.164Z,3.683
2023-02-28T04:15:22.523Z,3.678
2023-02-28T04:16:34.536Z,3.671
2023-02-28T04:17:21.616Z,3.644
2023-02-28T04:18:22.057Z,3.648
2023-02-28T04:19:21.450Z,3.625
2023-02-28T04:20:22.795Z,3.620
2023-02-28T04:21:22.033Z,3.620
2023-02-28T04:22:22.136Z,3.599
2023-02-28T04:23:22.134Z,3.589
2023-02-28T04:24:22.393Z,3.585
2023-02-28T04:25:22.345Z,3.575
2023-02-28T04:26:22.166Z,3.565
2023-02-28T04:27:21.583Z,3.575
2023-02-28T04:28:21.923Z,3.545
2023-02-28T04:29:22.436Z,3.539
2023-02-28T04:30:22.669Z,3.515
2023-02-28T04:31:22.251Z,3.464
2023-02-28T04:32:21.965Z,3.460
2023-02-28T04:33:21.958Z,3.404
2023-02-28T04:34:22.212Z,3.420
2023-02-28T04:35:21.812Z,3.414
2023-02-28T04:36:21.963Z,3.378
2023-02-28T04:37:22.006Z,3.372
2023-02-28T04:38:21.984Z,3.345
2023-02-28T04:39:21.881Z,3.316
2023-02-28T04:40:23.018Z,3.310
2023-02-28T04:41:21.698Z,3.275
2023-02-28T04:42:22.467Z,3.275
2023-02-28T04:43:21.940Z,3.255
2023-02-28T04:44:21.723Z,3.234
2023-02-28T04:45:22.757Z,3.214
2023-02-28T04:46:22.024Z,3.240
2023-02-28T04:47:22.380Z,3.234
2023-02-28T04:48:22.450Z,3.214
2023-02-28T04:49:22.246Z,3.220
2023-02-28T04:50:21.826Z,3.220
2023-02-28T04:51:21.884Z,3.25
2023-02-28T04:52:22.320Z,3.224
2023-02-28T04:53:21.408Z,3.224
2023-02-28T04:54:21.788Z,3.25
2023-02-28T04:55:21.708Z,3.25
2023-02-28T04:56:22.215Z,3.265
2023-02-28T04:57:22.155Z,3.224
2023-02-28T04:58:22.239Z,3.244
2023-02-28T04:59:22.123Z,3.224
2023-02-28T05:00:23.002Z,3.210
2023-02-28T05:01:22.725Z,3.230
2023-02-28T05:02:22.464Z,3.244
2023-02-28T05:03:21.997Z,3.210
2023-02-28T05:04:21.727Z,3.203
2023-02-28T05:05:22.176Z,3.210
2023-02-28T05:06:21.642Z,3.154
2023-02-28T05:07:22.819Z,3.131
2023-02-28T05:08:22.084Z,3.142
2023-02-28T05:09:22.155Z,3.165
2023-02-28T05:10:22.122Z,3.178
2023-02-28T05:11:22.562Z,3.178
2023-02-28T05:12:22.184Z,3.184
2023-02-28T05:13:22.183Z,3.171
2023-02-28T05:14:22.032Z,3.184
2023-02-28T05:15:22.585Z,3.184
2023-02-28T05:16:22.327Z,3.171
2023-02-28T05:17:23.104Z,3.160
2023-02-28T05:18:22.005Z,3.171
2023-02-28T05:19:22.558Z,3.165
2023-02-28T05:20:22.239Z,3.171
2023-02-28T05:21:22.667Z,3.178
2023-02-28T05:22:22.135Z,3.165
2023-02-28T05:23:22.175Z,3.165
2023-02-28T05:24:22.064Z,3.165
2023-02-28T05:25:22.443Z,3.190
2023-02-28T05:26:22.132Z,3.184
2023-02-28T05:27:22.138Z,3.165
2023-02-28T05:28:22.182Z,3.131
2023-02-28T05:29:22.348Z,3.137
2023-02-28T05:30:23.246Z,3.137
2023-02-28T05:31:22.378Z,3.137
2023-02-28T05:32:23.143Z,3.142
2023-02-28T05:33:21.970Z,3.138
2023-02-28T05:34:21.983Z,3.111
2023-02-28T05:35:22.278Z,3.075
2023-02-28T05:36:22.550Z,3.049
2023-02-28T05:37:22.846Z,3.035
2023-02-28T05:38:22.129Z,3.039
2023-02-28T05:39:22.579Z,3.029
2023-02-28T05:40:21.618Z,3.045
2023-02-28T05:41:22.162Z,3.009
2023-02-28T05:42:21.913Z,2.980
2023-02-28T05:43:21.406Z,2.954
2023-02-28T05:44:22.237Z,2.930
2023-02-28T05:45:22.884Z,2.934
2023-02-28T05:46:21.923Z,2.914
2023-02-28T05:47:21.901Z,2.904
2023-02-28T05:48:22.367Z,2.894
2023-02-28T05:49:22.031Z,2.855
2023-02-28T05:50:22.155Z,2.855
2023-02-28T05:51:22.268Z,2.845
2023-02-28T05:52:21.899Z,2.867
2023-02-28T05:53:22.259Z,2.867
2023-02-28T05:54:22.181Z,2.872
2023-02-28T05:55:21.615Z,2.838
2023-02-28T05:56:22.190Z,2.822
2023-02-28T05:57:24.724Z,2.805
2023-02-28T05:58:22.001Z,2.793
2023-02-28T05:59:22.332Z,2.776
2023-02-28T06:00:24.095Z,2.788
2023-02-28T06:01:22.652Z,2.795
2023-02-28T06:02:21.535Z,2.786
2023-02-28T06:03:21.620Z,2.771
2023-02-28T06:04:31.621Z,2.775
2023-02-28T06:05:23.195Z,2.775
2023-02-28T06:06:22.888Z,2.769
2023-02-28T06:07:22.205Z,2.740
2023-02-28T06:08:22.218Z,2.734
2023-02-28T06:09:22.224Z,2.744
2023-02-28T06:10:21.897Z,2.740
2023-02-28T06:11:22.425Z,2.714
2023-02-28T06:12:22.517Z,2.700
2023-02-28T06:13:23.490Z,2.730
2023-02-28T06:14:21.889Z,2.734
2023-02-28T06:15:23.074Z,2.755
2023-02-28T06:16:22.069Z,2.775
2023-02-28T06:17:21.957Z,2.779
2023-02-28T06:18:21.823Z,2.785
2023-02-28T06:19:22.650Z,2.755
2023-02-28T06:20:22.188Z,2.694
2023-02-28T06:21:22.856Z,2.724
2023-02-28T06:22:21.574Z,2.744
2023-02-28T06:23:22.132Z,2.755
2023-02-28T06:24:21.735Z,2.769
2023-02-28T06:25:22.498Z,2.755
2023-02-28T06:26:22.892Z,2.755
2023-02-28T06:27:22.248Z,2.744
2023-02-28T06:28:22.581Z,2.765
2023-02-28T06:29:22.775Z,2.759
2023-02-28T06:30:22.345Z,2.755
2023-02-28T06:31:22.476Z,2.779
2023-02-28T06:32:22.155Z,2.769
2023-02-28T06:33:21.841Z,2.769
2023-02-28T06:34:22.481Z,2.795
2023-02-28T06:35:36.821Z,2.815
2023-02-28T06:36:21.966Z,2.822
2023-02-28T06:37:22.000Z,2.815
2023-02-28T06:38:22.077Z,2.832
2023-02-28T06:39:22.689Z,2.821
2023-02-28T06:40:23.232Z,2.810
2023-02-28T06:41:22.679Z,2.815
2023-02-28T06:42:22.667Z,2.789
2023-02-28T06:43:22.677Z,2.805
2023-02-28T06:44:22.015Z,2.815
2023-02-28T06:45:22.355Z,2.785
2023-02-28T06:46:22.924Z,2.805
2023-02-28T06:47:22.706Z,2.805
2023-02-28T06:48:22.573Z,2.811
2023-02-28T06:49:22.176Z,2.789
2023-02-28T06:50:23.050Z,2.809
2023-02-28T06:51:22.444Z,2.849
2023-02-28T06:52:22.744Z,2.838
2023-02-28T06:53:22.218Z,2.832
2023-02-28T06:54:22.802Z,2.845
2023-02-28T06:55:22.629Z,2.855
2023-02-28T06:56:22.154Z,2.832
2023-02-28T06:57:22.664Z,2.867
2023-02-28T06:58:22.728Z,2.861
2023-02-28T06:59:23.898Z,2.868
2023-02-28T07:00:25.326Z,2.894
2023-02-28T07:01:23.303Z,2.934
2023-02-28T07:02:23.425Z,2.950
2023-02-28T07:03:23.074Z,2.970
2023-02-28T07:04:23.101Z,2.994
2023-02-28T07:05:22.168Z,3.005
2023-02-28T07:06:22.727Z,2.990
2023-02-28T07:07:22.345Z,3.009
2023-02-28T07:08:21.975Z,2.994
2023-02-28T07:09:22.504Z,3.005
2023-02-28T07:10:22.783Z,3.009
2023-02-28T07:11:22.354Z,3.029
2023-02-28T07:12:22.871Z,3.065
2023-02-28T07:13:23.098Z,3.075
2023-02-28T07:14:22.422Z,3.092
2023-02-28T07:15:23.098Z,3.106
2023-02-28T07:16:22.745Z,3.145
2023-02-28T07:17:23.008Z,3.171
2023-02-28T07:18:28.287Z,3.179
2023-02-28T07:19:23.214Z,3.183
2023-02-28T07:20:28.338Z,3.171
2023-02-28T07:21:23.231Z,3.137
2023-02-28T07:22:23.954Z,3.178
2023-02-28T07:23:23.091Z,3.193
2023-02-28T07:24:22.693Z,3.234
2023-02-28T07:25:23.142Z,3.234
2023-02-28T07:26:23.325Z,3.25
2023-02-28T07:27:22.601Z,3.269
2023-02-28T07:28:22.648Z,3.345
2023-02-28T07:29:23.184Z,3.372
2023-02-28T07:30:22.758Z,3.390
2023-02-28T07:31:23.648Z,3.384
2023-02-28T07:32:22.845Z,3.450
2023-02-28T07:33:22.920Z,3.454
2023-02-28T07:34:22.491Z,3.460
2023-02-28T07:35:22.777Z,3.529
2023-02-28T07:36:23.581Z,3.569
2023-02-28T07:37:23.114Z,3.615
2023-02-28T07:38:36.326Z,3.637
2023-02-28T07:39:22.407Z,3.689
2023-02-28T07:40:23.443Z,3.730
2023-02-28T07:41:22.676Z,3.755
2023-02-28T07:42:23.680Z,3.799
2023-02-28T07:43:23.333Z,3.855
2023-02-28T07:44:22.876Z,3.900
2023-02-28T07:45:22.726Z,3.960
2023-02-28T07:46:22.670Z,4.019
2023-02-28T07:47:25.337Z,4.045
2023-02-28T07:48:22.553Z,4.093
2023-02-28T07:49:22.351Z,4.155
2023-02-28T07:50:22.832Z,4.214
2023-02-28T07:51:22.770Z,4.275
2023-02-28T07:52:41.968Z,4.316
2023-02-28T07:53:23.196Z,4.361
2023-02-28T07:54:22.584Z,4.445
2023-02-28T07:55:22.939Z,4.494
2023-02-28T07:56:22.432Z,4.545
2023-02-28T07:57:22.644Z,4.599
2023-02-28T07:58:22.950Z,4.659
2023-02-28T07:59:22.645Z,4.719
2023-02-28T08:00:46.684Z,4.789
2023-02-28T08:01:23.011Z,4.844
2023-02-28T08:02:26.252Z,4.920
2023-02-28T08:03:23.554Z,4.974
2023-02-28T08:04:22.716Z,5.025
2023-02-28T08:05:23.122Z,5.084
2023-02-28T08:06:22.656Z,5.159
2023-02-28T08:07:23.139Z,5.224
2023-02-28T08:08:23.383Z,5.284
2023-02-28T08:09:22.593Z,5.327
2023-02-28T08:10:23.716Z,5.400
2023-02-28T08:11:23.171Z,5.445
2023-02-28T08:12:22.721Z,5.5
2023-02-28T08:13:22.767Z,5.565
2023-02-28T08:14:23.156Z,5.605
2023-02-28T08:15:23.097Z,5.723
2023-02-28T08:16:22.923Z,5.775
2023-02-28T08:17:23.021Z,5.824
2023-02-28T08:18:22.423Z,5.876
2023-02-28T08:19:22.841Z,5.945
2023-02-28T08:20:23.112Z,5.989
2023-02-28T08:21:23.031Z,6.085
2023-02-28T08:22:23.334Z,6.120
2023-02-28T08:23:22.715Z,6.203
2023-02-28T08:24:22.832Z,6.25
2023-02-28T08:25:22.379Z,6.333
2023-02-28T08:26:23.094Z,6.400
2023-02-28T08:27:22.162Z,6.394
2023-02-28T08:28:21.920Z,6.548
2023-02-28T08:29:23.034Z,6.606
2023-02-28T08:30:22.755Z,6.619
2023-02-28T08:31:23.446Z,6.699
2023-02-28T08:32:29.901Z,6.834
2023-02-28T08:33:22.733Z,6.841
2023-02-28T08:34:22.125Z,6.810
2023-02-28T08:35:22.890Z,6.826
2023-02-28T08:36:22.879Z,6.789
2023-02-28T08:37:22.470Z,6.784
2023-02-28T08:38:22.037Z,6.806
2023-02-28T08:39:23.400Z,6.754
2023-02-28T08:40:23.410Z,6.715
2023-02-28T08:41:22.986Z,6.765
2023-02-28T08:42:23.256Z,6.905
2023-02-28T08:43:22.884Z,6.925
2023-02-28T08:44:22.740Z,6.960
2023-02-28T08:45:22.714Z,7.065
2023-02-28T08:46:22.783Z,7.054
2023-02-28T08:47:22.859Z,7.130
2023-02-28T08:48:22.817Z,7.106
2023-02-28T08:49:22.326Z,7.085
2023-02-28T08:50:22.797Z,7.090
2023-02-28T08:51:22.476Z,7.091
2023-02-28T08:52:27.576Z,7.138
2023-02-28T08:53:23.667Z,7.094
2023-02-28T08:54:22.148Z,7.147
2023-02-28T08:55:23.251Z,7.344
2023-02-28T08:56:23.886Z,7.275
2023-02-28T08:57:23.660Z,7.289
2023-02-28T08:58:22.987Z,7.284
2023-02-28T08:59:22.949Z,7.230
2023-02-28T09:00:24.403Z,7.289
2023-02-28T09:01:23.560Z,7.565
2023-02-28T09:02:22.939Z,7.5
2023-02-28T09:03:24.350Z,7.418
2023-02-28T09:04:25.177Z,7.223
2023-02-28T09:05:23.142Z,7.159
2023-02-28T09:06:23.216Z,7.264
2023-02-28T09:07:23.260Z,7.235
2023-02-28T09:08:22.953Z,7.244
2023-02-28T09:09:23.298Z,7.403
2023-02-28T09:10:23.840Z,7.489
2023-02-28T09:11:23.003Z,7.559
2023-02-28T09:12:23.681Z,7.686
2023-02-28T09:13:23.950Z,7.554
2023-02-28T09:14:22.865Z,7.465
2023-02-28T09:15:23.699Z,7.409
2023-02-28T09:16:23.193Z,7.489
2023-02-28T09:17:23.250Z,7.539
2023-02-28T09:18:23.671Z,7.550
2023-02-28T09:19:22.961Z,7.594
2023-02-28T09:20:22.910Z,7.664
2023-02-28T09:21:23.539Z,7.692
2023-02-28T09:22:23.058Z,7.739
2023-02-28T09:23:21.636Z,7.909
2023-02-28T09:24:22.414Z,7.934
2023-02-28T09:25:23.729Z,8.170
2023-02-28T09:26:23.081Z,8.210
2023-02-28T09:27:22.577Z,8.187
2023-02-28T09:28:23.141Z,8.265
2023-02-28T09:29:22.057Z,8.314
2023-02-28T09:30:23.001Z,8.260
2023-02-28T09:31:22.749Z,8.265
2023-02-28T09:32:23.263Z,8.425
2023-02-28T09:33:23.104Z,8.520
2023-02-28T09:34:23.060Z,8.475
2023-02-28T09:35:23.232Z,8.399
2023-02-28T09:36:24.850Z,8.435
2023-02-28T09:37:23.043Z,8.435
2023-02-28T09:38:23.269Z,8.505
2023-02-28T09:39:22.825Z,8.539
2023-02-28T09:40:22.563Z,8.545
2023-02-28T09:41:22.997Z,8.616
2023-02-28T09:42:23.119Z,8.850
2023-02-28T09:43:23.611Z,8.708
2023-02-28T09:44:22.472Z,8.765
2023-02-28T09:45:28.592Z,8.734
2023-02-28T09:46:22.365Z,8.845
2023-02-28T09:47:23.288Z,8.871
2023-02-28T09:48:22.138Z,8.871
2023-02-28T09:49:30.539Z,8.887
2023-02-28T09:50:23.081Z,8.994
2023-02-28T09:51:22.612Z,9.005
2023-02-28T09:52:23.224Z,8.960
2023-02-28T09:53:22.461Z,8.884
2023-02-28T09:54:23.172Z,8.918
2023-02-28T09:55:46.254Z,8.850
2023-02-28T09:56:22.454Z,9.010
2023-02-28T09:57:22.545Z,9.164
2023-02-28T09:58:23.163Z,9.050
2023-02-28T09:59:22.550Z,9.050
2023-02-28T10:00:24.100Z,9.350
2023-02-28T10:01:37.583Z,9.255
2023-02-28T10:02:23.063Z,9.335
2023-02-28T10:03:22.984Z,9.470
2023-02-28T10:04:23.322Z,9.338
2023-02-28T10:05:23.288Z,9.218
2023-02-28T10:06:23.223Z,9.420
2023-02-28T10:07:23.356Z,9.565
2023-02-28T10:08:22.404Z,9.465
2023-02-28T10:09:22.906Z,9.434
2023-02-28T10:10:22.855Z,9.534
2023-02-28T10:11:22.838Z,9.407
2023-02-28T10:12:23.016Z,9.312
2023-02-28T10:13:23.076Z,9.25
2023-02-28T10:14:22.666Z,9.680
2023-02-28T10:15:23.610Z,9.770
2023-02-28T10:16:22.567Z,9.494
2023-02-28T10:17:22.831Z,9.470
2023-02-28T10:18:22.460Z,9.619
2023-02-28T10:19:23.177Z,9.760
2023-02-28T10:20:23.137Z,9.619
2023-02-28T10:21:44.896Z,9.5
2023-02-28T10:22:23.289Z,9.317
2023-02-28T10:23:22.419Z,9.284
2023-02-28T10:24:22.850Z,9.279
2023-02-28T10:25:22.546Z,9.25
2023-02-28T10:26:23.491Z,9.579
2023-02-28T10:27:22.938Z,9.609
2023-02-28T10:28:22.760Z,9.343
2023-02-28T10:29:23.012Z,9.201
2023-02-28T10:30:23.128Z,9.194
2023-02-28T10:32:25.478Z,9.425
2023-02-28T10:33:23.423Z,9.454
2023-02-28T10:34:22.867Z,9.333
2023-02-28T10:36:25.400Z,9.381
2023-02-28T10:37:22.568Z,9.279
2023-02-28T10:38:23.565Z,9.244
2023-02-28T10:40:25.144Z,9.239
2023-02-28T10:41:22.822Z,9.307
2023-02-28T10:42:23.565Z,9.710
2023-02-28T10:43:22.794Z,9.640
2023-02-28T10:44:22.720Z,9.600
2023-02-28T10:45:24.017Z,9.560
2023-02-28T10:46:22.782Z,9.640
2023-02-28T10:47:22.853Z,9.602
2023-02-28T10:48:23.468Z,9.460
2023-02-28T10:49:23.277Z,9.619
2023-02-28T10:50:23.072Z,9.774
2023-02-28T10:51:23.851Z,9.800
2023-02-28T10:52:23.039Z,9.744
2023-02-28T10:53:23.149Z,9.75
2023-02-28T10:54:23.302Z,9.687
2023-02-28T10:55:23.676Z,9.659
2023-02-28T10:56:22.847Z,9.812
2023-02-28T10:57:23.083Z,9.887
2023-02-28T10:58:23.716Z,9.939
2023-02-28T10:59:23.528Z,10.02
2023-02-28T11:00:24.610Z,10.15
2023-02-28T11:01:23.124Z,10.26
2023-02-28T11:02:23.263Z,10.22
2023-02-28T11:03:23.468Z,10.29
2023-02-28T11:04:23.704Z,10.27
2023-02-28T11:05:25.744Z,10.37
2023-02-28T11:06:23.839Z,10.36
2023-02-28T11:07:24.626Z,10.61
2023-02-28T11:08:24.747Z,10.45
2023-02-28T11:09:22.873Z,10.29
2023-02-28T11:10:24.022Z,10.22
2023-02-28T11:11:22.857Z,10.38
2023-02-28T11:12:23.490Z,10.39
2023-02-28T11:13:22.721Z,10.42
2023-02-28T11:14:22.885Z,10.63
2023-02-28T11:15:23.404Z,10.65
2023-02-28T11:16:22.903Z,10.55
2023-02-28T11:17:23.656Z,10.53
2023-02-28T11:18:23.131Z,10.47
2023-02-28T11:19:23.278Z,10.51
2023-02-28T11:20:23.943Z,10.55
2023-02-28T11:21:23.444Z,10.5
2023-02-28T11:22:23.454Z,10.53
2023-02-28T11:23:23.389Z,10.57
2023-02-28T11:24:22.819Z,10.88
2023-02-28T11:25:23.970Z,10.99
2023-02-28T11:26:23.006Z,10.73
2023-02-28T11:27:23.076Z,10.76
2023-02-28T11:28:23.553Z,10.50
2023-02-28T11:29:23.489Z,10.32
2023-02-28T11:30:24.115Z,10.51
2023-02-28T11:31:23.633Z,10.51
2023-02-28T11:32:23.347Z,10.47
2023-02-28T11:33:23.762Z,10.34
2023-02-28T11:34:24.014Z,10.40
2023-02-28T11:35:23.749Z,10.27
2023-02-28T11:36:24.501Z,10.13
2023-02-28T11:37:24.353Z,10.35
2023-02-28T11:38:23.121Z,10.56
2023-02-28T11:39:23.972Z,10.51
2023-02-28T11:40:23.881Z,10.41
2023-02-28T11:41:23.529Z,10.32
2023-02-28T11:42:23.356Z,10.34
2023-02-28T11:43:23.860Z,10.69
2023-02-28T11:44:23.077Z,11.23
2023-02-28T11:45:23.098Z,11.13
2023-02-28T11:46:23.513Z,11.11
2023-02-28T11:47:24.654Z,11.07
2023-02-28T11:48:24.345Z,11.12
2023-02-28T11:49:23.585Z,11.26
2023-02-28T11:50:23.918Z,11.11
2023-02-28T11:51:23.992Z,10.91
2023-02-28T11:52:24.054Z,10.84
2023-02-28T11:53:23.643Z,10.94
2023-02-28T11:54:24.117Z,11.13
2023-02-28T11:55:23.882Z,11.42
2023-02-28T11:56:23.195Z,11.32
2023-02-28T11:57:23.480Z,11.34
2023-02-28T11:58:23.928Z,11.47
2023-02-28T11:59:23.869Z,11.45
2023-02-28T12:00:27.769Z,11.36
2023-02-28T12:01:24.588Z,11.35
2023-02-28T12:02:28.477Z,11.63
2023-02-28T12:03:23.997Z,11.77
2023-02-28T12:04:28.837Z,12.10
2023-02-28T12:05:24.929Z,11.85
2023-02-28T12:06:24.234Z,11.68
2023-02-28T12:07:23.664Z,11.63
2023-02-28T12:08:28.655Z,11.78
2023-02-28T12:09:24.177Z,11.63
2023-02-28T12:10:28.930Z,11.44
2023-02-28T12:11:23.824Z,11.79
2023-02-28T12:12:28.754Z,11.56
2023-02-28T12:13:23.469Z,11.41
2023-02-28T12:14:23.917Z,11.61
2023-02-28T12:15:23.894Z,11.45
2023-02-28T12:16:24.834Z,11.51
2023-02-28T12:17:23.835Z,11.17
2023-02-28T12:18:23.823Z,11.02
2023-02-28T12:19:23.818Z,10.86
2023-02-28T12:20:23.594Z,10.77
2023-02-28T12:21:23.566Z,10.81
2023-02-28T12:22:32.384Z,10.87
2023-02-28T12:23:23.710Z,10.89
2023-02-28T12:24:23.554Z,10.77
2023-02-28T12:25:24.403Z,10.71
2023-02-28T12:26:23.377Z,10.77
2023-02-28T12:27:25.300Z,10.79
2023-02-28T12:28:23.254Z,10.77
2023-02-28T12:29:24.128Z,10.83
2023-02-28T12:30:23.586Z,11.21
2023-02-28T12:31:23.885Z,11.22
2023-02-28T12:32:23.853Z,11.11
2023-02-28T12:33:23.126Z,11.12
2023-02-28T12:34:23.332Z,11.16
2023-02-28T12:35:23.946Z,11.30
2023-02-28T12:36:41.838Z,11.38
2023-02-28T12:37:23.177Z,11.29
2023-02-28T12:38:23.643Z,11.22
2023-02-28T12:39:24.122Z,11.20
2023-02-28T12:40:22.806Z,11.24
2023-02-28T12:41:23.529Z,11.41
2023-02-28T12:42:23.246Z,11.57
2023-02-28T12:43:23.292Z,11.77
2023-02-28T12:44:23.132Z,11.65
2023-02-28T12:45:24.559Z,11.39
2023-02-28T12:46:23.908Z,11.35
2023-02-28T12:47:23.665Z,11.27
2023-02-28T12:48:24.236Z,11.24
2023-02-28T12:49:23.882Z,11.27
2023-02-28T12:50:23.985Z,11.25
2023-02-28T12:51:23.177Z,11.15
2023-02-28T12:52:23.486Z,11.16
2023-02-28T12:53:23.991Z,11.32
2023-02-28T12:54:24.401Z,11.61
2023-02-28T12:55:23.946Z,11.43
2023-02-28T12:56:23.647Z,11.51
2023-02-28T12:57:24.418Z,11.52